Time;durP1;ratioP1;P1;durP2;ratioP2;P2;SDS_P1;SDS_P2;PMS_P1;PMS_P2;Temp;Humidity;BMP_temperature;BMP_pressure;BME280_temperature;BME280_humidity;BME280_pressure;Samples;Min_cycle;Max_cycle;Signal;HPM_P1;HPM_P2
2022/10/30 00:00:51;;;;;;;8.13;4.55;;;;;;;;;;4857219;29;20048;-72
2022/10/30 00:03:19;;;;;;;11.45;5.22;;;;;;;;;;4891244;29;20071;-74
2022/10/30 00:05:48;;;;;;;6.40;4.75;;;;;;;;;;4883613;29;20071;-73
2022/10/30 00:08:18;;;;;;;7.93;4.55;;;;;;;;;;4880137;29;20051;-73
2022/10/30 00:10:45;;;;;;;9.25;4.60;;;;;;;;;;4888048;29;20464;-73
2022/10/30 00:13:13;;;;;;;5.20;4.10;;;;;;;;;;4896204;29;20381;-72
2022/10/30 00:15:46;;;;;;;9.90;4.22;;;;;;;;;;4889235;29;20534;-73
2022/10/30 00:18:13;;;;;;;6.88;3.70;;;;;;;;;;4895750;29;20071;-73
2022/10/30 00:20:41;;;;;;;6.35;3.88;;;;;;;;;;4879912;29;20048;-73
2022/10/30 00:23:08;;;;;;;8.30;4.05;;;;;;;;;;4879850;29;20071;-73
2022/10/30 00:25:36;;;;;;;5.35;3.20;;;;;;;;;;4895062;29;20040;-73
2022/10/30 00:28:04;;;;;;;6.65;3.95;;;;;;;;;;4895811;29;20517;-72
2022/10/30 00:30:31;;;;;;;8.30;4.18;;;;;;;;;;4893728;29;20049;-73
2022/10/30 00:32:59;;;;;;;7.10;3.75;;;;;;;;;;4877931;29;20076;-73
2022/10/30 00:35:27;;;;;;;7.88;4.88;;;;;;;;;;4852733;29;20143;-73
2022/10/30 00:37:55;;;;;;;6.35;3.58;;;;;;;;;;4861986;29;20147;-73
2022/10/30 00:40:23;;;;;;;5.47;3.55;;;;;;;;;;4876964;29;20644;-73
2022/10/30 00:42:50;;;;;;;5.68;3.45;;;;;;;;;;4878967;29;20445;-73
2022/10/30 00:45:18;;;;;;;5.45;3.67;;;;;;;;;;4877171;29;20048;-73
2022/10/30 00:47:54;;;;;;;5.40;3.47;;;;;;;;;;4894222;29;20084;-73
2022/10/30 00:50:33;;;;;;;6.55;4.03;;;;;;;;;;4863903;29;20405;-73
2022/10/30 00:53:03;;;;;;;6.80;3.10;;;;;;;;;;4878741;29;20052;-73
2022/10/30 00:55:32;;;;;;;6.18;3.65;;;;;;;;;;4861853;29;20049;-73
2022/10/30 00:58:01;;;;;;;7.47;3.60;;;;;;;;;;4878796;29;20041;-73
2022/10/30 01:00:29;;;;;;;7.25;3.40;;;;;;;;;;4877783;29;20049;-73
2022/10/30 01:02:57;;;;;;;5.97;3.58;;;;;;;;;;4879028;29;20079;-74
2022/10/30 01:05:27;;;;;;;5.35;3.45;;;;;;;;;;4876984;29;20044;-73
2022/10/30 01:07:54;;;;;;;9.27;3.58;;;;;;;;;;4876124;29;20037;-73
2022/10/30 01:10:22;;;;;;;6.10;3.47;;;;;;;;;;4877042;29;20120;-73
2022/10/30 01:12:50;;;;;;;4.15;3.33;;;;;;;;;;4873148;29;20049;-74
2022/10/30 01:15:20;;;;;;;11.82;3.60;;;;;;;;;;4878459;29;20501;-73
2022/10/30 01:18:06;;;;;;;3.35;2.90;;;;;;;;;;4895715;29;20505;-73
2022/10/30 01:20:43;;;;;;;6.00;3.30;;;;;;;;;;4862902;29;20076;-73
2022/10/30 01:23:21;;;;;;;10.82;4.30;;;;;;;;;;4877991;29;20076;-72
2022/10/30 01:25:57;;;;;;;6.82;3.53;;;;;;;;;;4857079;29;20045;-72
2022/10/30 01:28:52;;;;;;;5.57;3.75;;;;;;;;;;4876965;29;20041;-74
2022/10/30 01:31:38;;;;;;;6.32;3.42;;;;;;;;;;4862788;29;20052;-73
2022/10/30 01:34:18;;;;;;;8.10;2.75;;;;;;;;;;4861560;29;20045;-73
2022/10/30 01:37:03;;;;;;;4.90;3.60;;;;;;;;;;4862756;29;20049;-73
2022/10/30 01:39:33;;;;;;;4.88;3.25;;;;;;;;;;4860081;29;20052;-73
2022/10/30 01:42:08;;;;;;;6.43;4.00;;;;;;;;;;4897916;29;20052;-73
2022/10/30 01:44:36;;;;;;;9.63;3.13;;;;;;;;;;4886848;29;20052;-73
2022/10/30 01:47:21;;;;;;;8.55;3.60;;;;;;;;;;4895863;29;20056;-73
2022/10/30 01:50:07;;;;;;;6.10;3.65;;;;;;;;;;4896058;29;20052;-72
2022/10/30 01:52:41;;;;;;;11.90;3.85;;;;;;;;;;4878219;29;20060;-73
2022/10/30 01:55:15;;;;;;;5.85;3.90;;;;;;;;;;4893118;29;20052;-73
2022/10/30 01:57:49;;;;;;;8.02;3.75;;;;;;;;;;4894064;29;20029;-73
2022/10/30 02:00:19;;;;;;;4.75;3.30;;;;;;;;;;4897361;29;20065;-73
2022/10/30 02:02:48;;;;;;;6.85;3.50;;;;;;;;;;4911427;29;20056;-73
2022/10/30 02:05:45;;;;;;;6.60;3.15;;;;;;;;;;4862590;29;20067;-73
2022/10/30 02:08:13;;;;;;;3.95;3.47;;;;;;;;;;4880686;29;20052;-73
2022/10/30 02:10:41;;;;;;;7.38;3.40;;;;;;;;;;4881971;29;20238;-73
2022/10/30 02:13:09;;;;;;;6.93;3.95;;;;;;;;;;4878223;29;20517;-73
2022/10/30 02:15:37;;;;;;;11.98;4.03;;;;;;;;;;4873194;29;20072;-73
2022/10/30 02:18:05;;;;;;;7.80;3.55;;;;;;;;;;4862399;29;20055;-73
2022/10/30 02:20:32;;;;;;;6.72;3.63;;;;;;;;;;4876279;29;20040;-73
2022/10/30 02:23:00;;;;;;;7.65;4.00;;;;;;;;;;4882430;29;20068;-73
2022/10/30 02:25:32;;;;;;;12.38;3.70;;;;;;;;;;4880168;29;20040;-73
2022/10/30 02:28:00;;;;;;;7.07;3.85;;;;;;;;;;4862443;29;20053;-73
2022/10/30 02:30:30;;;;;;;5.13;3.42;;;;;;;;;;4867408;29;20062;-73
2022/10/30 02:32:57;;;;;;;4.35;3.63;;;;;;;;;;4877059;29;20068;-73
2022/10/30 02:35:25;;;;;;;7.40;3.50;;;;;;;;;;4876030;29;20425;-73
2022/10/30 02:37:52;;;;;;;5.07;3.50;;;;;;;;;;4876998;29;20044;-73
2022/10/30 02:40:19;;;;;;;4.55;3.60;;;;;;;;;;4873287;29;20152;-73
2022/10/30 02:42:54;;;;;;;6.20;3.53;;;;;;;;;;4877936;29;20052;-73
2022/10/30 02:45:21;;;;;;;4.95;3.28;;;;;;;;;;4889947;29;20041;-73
2022/10/30 02:47:49;;;;;;;5.80;3.60;;;;;;;;;;4889599;29;20045;-72
2022/10/30 02:50:16;;;;;;;6.50;3.60;;;;;;;;;;4877228;29;20136;-73
2022/10/30 02:52:44;;;;;;;6.45;3.88;;;;;;;;;;4860164;29;20060;-73
2022/10/30 02:55:12;;;;;;;7.95;3.83;;;;;;;;;;4859877;29;20520;-73
2022/10/30 02:57:40;;;;;;;4.45;3.97;;;;;;;;;;4873449;29;20409;-74
2022/10/30 03:00:08;;;;;;;6.00;3.70;;;;;;;;;;4861270;29;20049;-74
2022/10/30 03:02:35;;;;;;;6.80;3.35;;;;;;;;;;4871390;29;20037;-74
2022/10/30 03:05:03;;;;;;;9.77;3.80;;;;;;;;;;4856771;29;20093;-74
2022/10/30 03:07:31;;;;;;;10.13;3.38;;;;;;;;;;4875969;29;20064;-74
2022/10/30 03:09:58;;;;;;;8.15;3.97;;;;;;;;;;4875052;29;20417;-72
2022/10/30 03:12:25;;;;;;;4.72;3.33;;;;;;;;;;4865004;29;20481;-73
2022/10/30 03:14:53;;;;;;;7.57;3.50;;;;;;;;;;4876160;29;20041;-73
2022/10/30 03:17:20;;;;;;;8.05;3.30;;;;;;;;;;4876819;29;20560;-73
2022/10/30 03:19:48;;;;;;;6.88;3.80;;;;;;;;;;4894183;29;20125;-73
2022/10/30 03:22:15;;;;;;;6.80;3.33;;;;;;;;;;4874970;29;20049;-73
2022/10/30 03:24:43;;;;;;;5.72;3.40;;;;;;;;;;4860578;29;20072;-73
2022/10/30 03:27:10;;;;;;;6.65;4.20;;;;;;;;;;4893055;29;20044;-73
2022/10/30 03:29:39;;;;;;;7.28;3.63;;;;;;;;;;4894027;29;20056;-73
2022/10/30 03:32:10;;;;;;;4.80;3.60;;;;;;;;;;4876641;29;20516;-73
2022/10/30 03:34:51;;;;;;;4.45;3.33;;;;;;;;;;4867711;29;20424;-73
2022/10/30 03:37:18;;;;;;;5.88;3.55;;;;;;;;;;4889749;29;20049;-73
2022/10/30 03:39:46;;;;;;;5.55;4.00;;;;;;;;;;4933118;23;20052;-77
2022/10/30 03:42:13;;;;;;;8.18;3.70;;;;;;;;;;4873707;29;20580;-77
2022/10/30 03:44:40;;;;;;;5.68;3.88;;;;;;;;;;4860419;29;20053;-77
2022/10/30 03:47:08;;;;;;;8.23;4.13;;;;;;;;;;4872461;29;20104;-76
2022/10/30 03:49:40;;;;;;;9.73;3.78;;;;;;;;;;4886089;29;20045;-77
2022/10/30 03:52:11;;;;;;;5.60;3.33;;;;;;;;;;4876556;29;20040;-76
2022/10/30 03:54:39;;;;;;;5.40;3.67;;;;;;;;;;4892382;29;20551;-78
2022/10/30 03:57:07;;;;;;;6.57;3.35;;;;;;;;;;4866159;29;20219;-77
2022/10/30 04:00:05;;;;;;;5.72;3.35;;;;;;;;;;4863247;29;20414;-76
2022/10/30 04:02:48;;;;;;;4.13;3.25;;;;;;;;;;4890157;29;20044;-76
2022/10/30 04:05:17;;;;;;;8.02;3.50;;;;;;;;;;4858215;29;20091;-76
2022/10/30 04:07:45;;;;;;;5.60;3.40;;;;;;;;;;4873616;29;20047;-77
2022/10/30 04:10:13;;;;;;;7.07;3.55;;;;;;;;;;4872473;29;20075;-77
2022/10/30 04:12:49;;;;;;;5.55;3.20;;;;;;;;;;4882455;29;20407;-76
2022/10/30 04:15:16;;;;;;;3.38;2.90;;;;;;;;;;4880733;29;20048;-77
2022/10/30 04:17:49;;;;;;;4.57;3.20;;;;;;;;;;4864116;29;20822;-76
2022/10/30 04:20:17;;;;;;;4.68;3.42;;;;;;;;;;4881237;29;20060;-77
2022/10/30 04:22:46;;;;;;;6.05;3.50;;;;;;;;;;4891762;29;20405;-77
2022/10/30 04:25:19;;;;;;;6.55;3.20;;;;;;;;;;4885498;29;20101;-77
2022/10/30 04:27:51;;;;;;;5.60;3.30;;;;;;;;;;4875832;29;20128;-77
2022/10/30 04:30:20;;;;;;;11.40;3.13;;;;;;;;;;4878919;29;20048;-77
2022/10/30 04:32:48;;;;;;;6.50;3.45;;;;;;;;;;4887199;29;20552;-77
2022/10/30 04:35:18;;;;;;;6.82;3.10;;;;;;;;;;4878917;29;20052;-77
2022/10/30 04:37:52;;;;;;;6.57;3.60;;;;;;;;;;4868126;29;20053;-77
2022/10/30 04:40:21;;;;;;;5.07;3.60;;;;;;;;;;4866467;29;20048;-76
2022/10/30 04:42:54;;;;;;;5.47;3.17;;;;;;;;;;4894899;29;20509;-76
2022/10/30 04:45:22;;;;;;;5.18;3.13;;;;;;;;;;4889126;29;20697;-77
2022/10/30 04:47:50;;;;;;;5.90;2.97;;;;;;;;;;4873737;29;20048;-78
2022/10/30 04:50:18;;;;;;;6.55;3.60;;;;;;;;;;4852806;29;20109;-77
2022/10/30 04:52:46;;;;;;;5.43;3.65;;;;;;;;;;4865631;29;20053;-77
2022/10/30 04:55:13;;;;;;;6.95;3.38;;;;;;;;;;4867715;29;20064;-78
2022/10/30 04:57:44;;;;;;;5.82;3.33;;;;;;;;;;4894122;29;20064;-77
2022/10/30 05:00:12;;;;;;;4.18;3.15;;;;;;;;;;4885624;29;20092;-77
2022/10/30 05:02:40;;;;;;;4.30;2.88;;;;;;;;;;4888661;29;20048;-77
2022/10/30 05:05:08;;;;;;;4.82;3.25;;;;;;;;;;4887972;29;20055;-76
2022/10/30 05:07:35;;;;;;;5.57;2.75;;;;;;;;;;4869850;29;20148;-77
2022/10/30 05:10:03;;;;;;;3.42;3.00;;;;;;;;;;4872074;29;20057;-77
2022/10/30 05:12:30;;;;;;;4.20;3.00;;;;;;;;;;4883811;29;20630;-77
2022/10/30 05:14:58;;;;;;;8.05;3.45;;;;;;;;;;4887062;29;20516;-76
2022/10/30 05:17:25;;;;;;;4.00;3.55;;;;;;;;;;4885342;29;20044;-78
2022/10/30 05:19:53;;;;;;;3.78;2.90;;;;;;;;;;4889192;29;20447;-76
2022/10/30 05:22:20;;;;;;;4.60;3.03;;;;;;;;;;4867730;29;20041;-76
2022/10/30 05:24:48;;;;;;;3.58;3.13;;;;;;;;;;4875869;29;20483;-76
2022/10/30 05:27:15;;;;;;;3.40;3.00;;;;;;;;;;4852525;29;20501;-77
2022/10/30 05:29:42;;;;;;;4.13;2.60;;;;;;;;;;4881053;29;20053;-77
2022/10/30 05:32:10;;;;;;;11.52;3.20;;;;;;;;;;4872580;29;20136;-77
2022/10/30 05:34:43;;;;;;;9.38;3.10;;;;;;;;;;4866857;29;20238;-76
2022/10/30 05:37:11;;;;;;;4.60;3.10;;;;;;;;;;4851677;29;20073;-77
2022/10/30 05:39:40;;;;;;;3.72;3.15;;;;;;;;;;4870807;29;20494;-76
2022/10/30 05:42:15;;;;;;;5.05;2.80;;;;;;;;;;4885275;29;20052;-76
2022/10/30 05:44:44;;;;;;;4.68;3.42;;;;;;;;;;4878294;29;20871;-77
2022/10/30 05:47:34;;;;;;;3.88;2.83;;;;;;;;;;4892192;29;20335;-76
2022/10/30 05:50:02;;;;;;;3.67;2.75;;;;;;;;;;4873989;29;20066;-76
2022/10/30 05:52:29;;;;;;;6.22;2.72;;;;;;;;;;4868496;29;20049;-77
2022/10/30 05:54:58;;;;;;;6.70;3.20;;;;;;;;;;4865599;29;20055;-77
2022/10/30 05:57:46;;;;;;;5.53;3.10;;;;;;;;;;4866158;29;20116;-77
2022/10/30 06:00:13;;;;;;;6.75;3.03;;;;;;;;;;4875440;29;20139;-77
2022/10/30 06:02:43;;;;;;;2.92;2.58;;;;;;;;;;4878130;29;20589;-77
2022/10/30 06:05:13;;;;;;;7.60;3.15;;;;;;;;;;4875742;29;20052;-77
2022/10/30 06:07:42;;;;;;;6.95;3.15;;;;;;;;;;4868285;29;20048;-77
2022/10/30 06:10:09;;;;;;;8.75;3.38;;;;;;;;;;4865360;29;20118;-77
2022/10/30 06:12:42;;;;;;;3.33;2.90;;;;;;;;;;4862541;29;20244;-76
2022/10/30 06:15:29;;;;;;;4.90;2.92;;;;;;;;;;4872842;29;20069;-78
2022/10/30 06:17:57;;;;;;;7.72;3.17;;;;;;;;;;4875227;29;20052;-77
2022/10/30 06:20:55;;;;;;;4.63;3.35;;;;;;;;;;4866974;29;20302;-77
2022/10/30 06:23:41;;;;;;;7.43;3.20;;;;;;;;;;4886974;29;20099;-76
2022/10/30 06:26:29;;;;;;;7.30;3.50;;;;;;;;;;4869000;29;20056;-76
2022/10/30 06:29:03;;;;;;;7.75;3.50;;;;;;;;;;4879624;29;20534;-77
2022/10/30 06:31:30;;;;;;;11.48;3.72;;;;;;;;;;4879185;29;20049;-76
2022/10/30 06:33:59;;;;;;;10.20;3.50;;;;;;;;;;4878602;29;20481;-76
2022/10/30 06:36:27;;;;;;;5.15;3.50;;;;;;;;;;4870850;29;20632;-77
2022/10/30 06:38:55;;;;;;;6.53;3.70;;;;;;;;;;4871998;29;20057;-76
2022/10/30 06:41:26;;;;;;;8.13;3.90;;;;;;;;;;4867919;29;20037;-77
2022/10/30 06:44:15;;;;;;;7.88;4.22;;;;;;;;;;4885901;29;20037;-76
2022/10/30 06:46:43;;;;;;;7.57;3.80;;;;;;;;;;4872518;29;20040;-77
2022/10/30 06:49:10;;;;;;;9.18;4.05;;;;;;;;;;4889585;29;20041;-77
2022/10/30 06:51:38;;;;;;;5.57;4.22;;;;;;;;;;4889016;29;20570;-77
2022/10/30 06:54:06;;;;;;;13.93;4.45;;;;;;;;;;4862187;29;20688;-77
2022/10/30 06:56:39;;;;;;;9.93;4.90;;;;;;;;;;4862725;29;20139;-77
2022/10/30 06:59:27;;;;;;;7.60;4.90;;;;;;;;;;4864535;29;20075;-76
2022/10/30 07:02:14;;;;;;;10.00;4.90;;;;;;;;;;4880125;29;20063;-76
2022/10/30 07:04:50;;;;;;;5.60;4.68;;;;;;;;;;4868503;29;20115;-76
2022/10/30 07:07:17;;;;;;;6.13;5.00;;;;;;;;;;4857201;29;20152;-76
2022/10/30 07:09:45;;;;;;;4.63;4.00;;;;;;;;;;4857569;29;20541;-76
2022/10/30 07:12:14;;;;;;;5.50;3.92;;;;;;;;;;4874682;29;20513;-76
2022/10/30 07:15:17;;;;;;;6.32;4.65;;;;;;;;;;4841990;29;20528;-76
2022/10/30 07:18:02;;;;;;;7.32;4.95;;;;;;;;;;4867127;29;20080;-76
2022/10/30 07:20:34;;;;;;;5.50;4.78;;;;;;;;;;4863298;29;20041;-76
2022/10/30 07:23:01;;;;;;;9.10;4.80;;;;;;;;;;4883952;29;20052;-76
2022/10/30 07:25:29;;;;;;;5.15;4.55;;;;;;;;;;4873591;29;20509;-77
2022/10/30 07:28:30;;;;;;;7.60;4.20;;;;;;;;;;4867941;29;20116;-77
2022/10/30 07:31:23;;;;;;;7.82;4.50;;;;;;;;;;4881670;29;20139;-76
2022/10/30 07:34:29;;;;;;;8.32;4.47;;;;;;;;;;4888863;29;20065;-78
2022/10/30 07:37:16;;;;;;;6.50;4.47;;;;;;;;;;4885351;29;20052;-77
2022/10/30 07:40:10;;;;;;;5.25;4.10;;;;;;;;;;4891344;29;20123;-77
2022/10/30 07:43:12;;;;;;;4.90;4.40;;;;;;;;;;4830978;29;20055;-76
2022/10/30 07:45:47;;;;;;;6.68;3.90;;;;;;;;;;4867411;29;20048;-77
2022/10/30 07:48:20;;;;;;;5.45;4.28;;;;;;;;;;4889135;29;20465;-77
2022/10/30 07:51:08;;;;;;;5.57;3.97;;;;;;;;;;4887104;29;20477;-78
2022/10/30 07:53:36;;;;;;;5.28;3.90;;;;;;;;;;4852359;29;20064;-77
2022/10/30 07:56:04;;;;;;;5.10;4.10;;;;;;;;;;4860679;29;20041;-77
2022/10/30 07:58:50;;;;;;;5.43;4.00;;;;;;;;;;4889849;29;20509;-76
2022/10/30 08:01:37;;;;;;;7.13;5.03;;;;;;;;;;4878541;29;20506;-78
2022/10/30 08:04:31;;;;;;;8.40;4.53;;;;;;;;;;4881707;29;20107;-79
2022/10/30 08:07:08;;;;;;;6.35;4.18;;;;;;;;;;4884962;29;20041;-80
2022/10/30 08:09:35;;;;;;;7.32;5.32;;;;;;;;;;4879958;29;20512;-79
2022/10/30 08:12:03;;;;;;;14.80;7.80;;;;;;;;;;4887804;29;20047;-77
2022/10/30 08:14:30;;;;;;;9.23;5.20;;;;;;;;;;4887269;29;20415;-77
2022/10/30 08:16:57;;;;;;;8.32;5.07;;;;;;;;;;4873233;29;20093;-78
2022/10/30 08:19:25;;;;;;;7.22;5.25;;;;;;;;;;4887276;29;20298;-77
2022/10/30 08:21:53;;;;;;;5.40;4.20;;;;;;;;;;4876998;29;20051;-77
2022/10/30 08:24:26;;;;;;;5.20;4.05;;;;;;;;;;4877974;29;20050;-77
2022/10/30 08:26:56;;;;;;;5.45;3.80;;;;;;;;;;4874460;29;20227;-78
2022/10/30 08:29:25;;;;;;;9.18;4.30;;;;;;;;;;4873442;29;20389;-77
2022/10/30 08:31:53;;;;;;;4.70;4.10;;;;;;;;;;4871498;29;20072;-76
2022/10/30 08:34:25;;;;;;;8.73;4.40;;;;;;;;;;4890295;29;20073;-77
2022/10/30 08:36:54;;;;;;;8.18;4.53;;;;;;;;;;4888430;29;20509;-77
2022/10/30 08:39:22;;;;;;;7.70;4.47;;;;;;;;;;4867848;29;20505;-77
2022/10/30 08:42:04;;;;;;;;;;;;;;;;;;4870136;29;20040;-77
2022/10/30 08:44:38;;;;;;;7.07;4.05;;;;;;;;;;4870532;29;19924;-77
2022/10/30 08:47:36;;;;;;;8.90;4.22;;;;;;;;;;4868871;29;20177;-76
2022/10/30 08:50:03;;;;;;;6.85;3.85;;;;;;;;;;4850682;29;20100;-76
2022/10/30 08:52:31;;;;;;;5.82;3.67;;;;;;;;;;4884496;29;20506;-77
2022/10/30 08:55:00;;;;;;;4.72;3.78;;;;;;;;;;4871347;29;20064;-78
2022/10/30 08:57:34;;;;;;;4.28;3.67;;;;;;;;;;4869667;29;20047;-77
2022/10/30 09:00:02;;;;;;;5.05;3.97;;;;;;;;;;4870624;29;20041;-78
2022/10/30 09:02:55;;;;;;;4.88;3.42;;;;;;;;;;4874065;29;20056;-78
2022/10/30 09:05:43;;;;;;;6.00;3.60;;;;;;;;;;4895811;29;20041;-77
2022/10/30 09:08:16;;;;;;;5.43;3.13;;;;;;;;;;4886011;29;20369;-77
2022/10/30 09:11:01;;;;;;;6.25;3.67;;;;;;;;;;4868181;29;20088;-77
2022/10/30 09:13:29;;;;;;;6.72;3.47;;;;;;;;;;4877106;29;20044;-77
2022/10/30 09:16:01;;;;;;;7.70;3.72;;;;;;;;;;4882471;29;20044;-77
2022/10/30 09:18:31;;;;;;;6.97;3.67;;;;;;;;;;4871583;29;20049;-77
2022/10/30 09:20:59;;;;;;;6.70;3.03;;;;;;;;;;4872802;29;20079;-78
2022/10/30 09:23:34;;;;;;;4.75;3.47;;;;;;;;;;4859705;29;20490;-78
2022/10/30 09:26:37;;;;;;;4.05;3.08;;;;;;;;;;4842701;29;20554;-77
2022/10/30 09:29:31;;;;;;;5.88;3.05;;;;;;;;;;4868773;29;20056;-79
2022/10/30 09:32:16;;;;;;;6.47;3.58;;;;;;;;;;4855667;29;20052;-77
2022/10/30 09:35:01;;;;;;;11.25;3.17;;;;;;;;;;4875572;29;20049;-77
2022/10/30 09:37:39;;;;;;;9.23;3.60;;;;;;;;;;4871695;29;20395;-77
2022/10/30 09:40:19;;;;;;;6.10;3.08;;;;;;;;;;4871189;29;20041;-78
2022/10/30 09:42:47;;;;;;;8.25;3.47;;;;;;;;;;4875554;29;20125;-78
2022/10/30 09:45:34;;;;;;;9.43;3.42;;;;;;;;;;4892797;29;20051;-77
2022/10/30 09:48:10;;;;;;;4.70;3.20;;;;;;;;;;4869217;29;20076;-78
2022/10/30 09:50:56;;;;;;;5.47;3.00;;;;;;;;;;4884777;29;20385;-77
2022/10/30 09:53:40;;;;;;;5.28;3.40;;;;;;;;;;4870052;29;20462;-77
2022/10/30 09:56:19;;;;;;;5.13;3.55;;;;;;;;;;4856208;29;21755;-77
2022/10/30 09:58:59;;;;;;;5.78;3.30;;;;;;;;;;4890929;29;20053;-77
2022/10/30 10:01:30;;;;;;;7.05;3.63;;;;;;;;;;4882756;29;20091;-78
2022/10/30 10:04:12;;;;;;;6.55;3.22;;;;;;;;;;4876006;29;20080;-76
2022/10/30 10:06:40;;;;;;;6.63;3.95;;;;;;;;;;4878647;29;20500;-77
2022/10/30 10:09:38;;;;;;;6.85;3.67;;;;;;;;;;4872714;29;20084;-77
2022/10/30 10:12:43;;;;;;;5.78;3.50;;;;;;;;;;4847069;29;20538;-77
2022/10/30 10:15:15;;;;;;;5.85;3.85;;;;;;;;;;4885327;29;20084;-77
2022/10/30 10:17:44;;;;;;;5.97;3.95;;;;;;;;;;4883392;29;20497;-78
2022/10/30 10:20:15;;;;;;;7.05;3.72;;;;;;;;;;4885796;29;20052;-77
2022/10/30 10:22:49;;;;;;;9.43;3.15;;;;;;;;;;4883987;29;20037;-78
2022/10/30 10:25:19;;;;;;;6.05;3.72;;;;;;;;;;4867340;29;20047;-78
2022/10/30 10:27:58;;;;;;;5.00;3.10;;;;;;;;;;4867162;29;20041;-77
2022/10/30 10:30:29;;;;;;;7.47;3.45;;;;;;;;;;4887923;29;20104;-77
2022/10/30 10:33:15;;;;;;;6.05;3.55;;;;;;;;;;4890274;29;20383;-77
2022/10/30 10:35:53;;;;;;;4.13;3.30;;;;;;;;;;4886893;29;20049;-77
2022/10/30 10:38:27;;;;;;;9.32;3.72;;;;;;;;;;4887875;29;20052;-76
2022/10/30 10:41:13;;;;;;;7.47;3.83;;;;;;;;;;4874154;29;20051;-76
2022/10/30 10:43:43;;;;;;;6.70;4.10;;;;;;;;;;4889786;29;20055;-76
2022/10/30 10:46:26;;;;;;;8.10;4.35;;;;;;;;;;4898984;29;20076;-76
2022/10/30 10:48:54;;;;;;;4.80;3.45;;;;;;;;;;4882340;29;20108;-77
2022/10/30 10:51:22;;;;;;;8.63;3.90;;;;;;;;;;4900539;29;20044;-77
2022/10/30 10:53:50;;;;;;;9.10;3.88;;;;;;;;;;4882286;29;20041;-76
2022/10/30 10:56:18;;;;;;;9.10;3.50;;;;;;;;;;4892989;29;20512;-77
2022/10/30 10:58:54;;;;;;;6.03;3.60;;;;;;;;;;4896801;29;20119;-76
2022/10/30 11:01:25;;;;;;;5.53;3.10;;;;;;;;;;4898606;29;20123;-77
2022/10/30 11:03:56;;;;;;;5.18;3.63;;;;;;;;;;4901289;29;20699;-75
2022/10/30 11:06:27;;;;;;;10.45;9.32;;;;;;;;;;4893813;29;20056;-76
2022/10/30 11:09:02;;;;;;;10.48;5.10;;;;;;;;;;4883357;29;20040;-76
2022/10/30 11:11:29;;;;;;;7.13;3.33;;;;;;;;;;4886814;29;20053;-76
2022/10/30 11:13:56;;;;;;;6.22;3.30;;;;;;;;;;4908158;29;20115;-76
2022/10/30 11:16:59;;;;;;;5.95;3.42;;;;;;;;;;4891330;29;20041;-76
2022/10/30 11:19:28;;;;;;;7.10;3.60;;;;;;;;;;4808731;29;20057;-77
2022/10/30 11:21:55;;;;;;;3.95;3.17;;;;;;;;;;4880806;29;20532;-76
2022/10/30 11:24:28;;;;;;;6.40;3.60;;;;;;;;;;4892752;29;20044;-77
2022/10/30 11:26:57;;;;;;;5.20;3.22;;;;;;;;;;4890272;29;20055;-77
2022/10/30 11:29:26;;;;;;;6.13;3.28;;;;;;;;;;4882043;29;20049;-77
2022/10/30 11:32:04;;;;;;;6.30;3.08;;;;;;;;;;4894978;29;20108;-77
2022/10/30 11:34:36;;;;;;;5.35;3.45;;;;;;;;;;4893895;29;20213;-77
2022/10/30 11:37:05;;;;;;;6.53;3.13;;;;;;;;;;4888913;29;20047;-77
2022/10/30 11:39:34;;;;;;;9.45;3.85;;;;;;;;;;4891728;29;20049;-77
2022/10/30 11:42:06;;;;;;;6.68;4.10;;;;;;;;;;4898058;29;20435;-78
2022/10/30 11:44:36;;;;;;;6.10;3.60;;;;;;;;;;4858147;29;20410;-77
2022/10/30 11:47:04;;;;;;;4.57;3.42;;;;;;;;;;4872560;29;20053;-78
2022/10/30 11:49:44;;;;;;;6.22;3.42;;;;;;;;;;4873002;29;20053;-77
2022/10/30 11:52:13;;;;;;;5.55;3.63;;;;;;;;;;4892221;29;20497;-78
2022/10/30 11:54:43;;;;;;;4.10;3.28;;;;;;;;;;4899726;29;20542;-77
2022/10/30 11:57:19;;;;;;;7.65;3.40;;;;;;;;;;4893433;29;20465;-77
2022/10/30 11:59:47;;;;;;;6.10;3.38;;;;;;;;;;4881243;29;20049;-77
2022/10/30 12:02:22;;;;;;;10.60;3.97;;;;;;;;;;4895809;29;20036;-77
2022/10/30 12:04:50;;;;;;;6.68;4.22;;;;;;;;;;4883104;29;20055;-77
2022/10/30 12:07:25;;;;;;;10.02;3.75;;;;;;;;;;4876605;29;20052;-77
2022/10/30 12:09:52;;;;;;;6.30;3.40;;;;;;;;;;4887712;29;20523;-77
2022/10/30 12:12:23;;;;;;;8.02;3.90;;;;;;;;;;4873882;29;20495;-77
2022/10/30 12:14:51;;;;;;;10.00;4.03;;;;;;;;;;4891956;29;20108;-78
2022/10/30 12:17:19;;;;;;;7.60;3.90;;;;;;;;;;4863905;29;20048;-76
2022/10/30 12:19:52;;;;;;;12.57;4.57;;;;;;;;;;4897684;29;20045;-77
2022/10/30 12:22:30;;;;;;;8.10;4.40;;;;;;;;;;4898429;29;20045;-77
2022/10/30 12:24:59;;;;;;;8.88;4.50;;;;;;;;;;4870550;29;20506;-77
2022/10/30 12:27:28;;;;;;;9.32;4.28;;;;;;;;;;4870357;29;20455;-77
2022/10/30 12:30:01;;;;;;;5.80;3.53;;;;;;;;;;4893485;29;20036;-77
2022/10/30 12:32:41;;;;;;;6.88;3.55;;;;;;;;;;4875430;29;20497;-76
2022/10/30 12:35:29;;;;;;;6.93;3.65;;;;;;;;;;4898406;29;20386;-76
2022/10/30 12:37:58;;;;;;;5.78;3.28;;;;;;;;;;4887628;29;20045;-76
2022/10/30 12:40:30;;;;;;;10.43;4.63;;;;;;;;;;4894369;29;20525;-77
2022/10/30 12:42:57;;;;;;;;;;;;;;;;;;4892105;29;20049;-76
2022/10/30 12:45:31;;;;;;;7.53;4.07;;;;;;;;;;4892713;29;20038;-77
2022/10/30 12:48:12;;;;;;;9.93;3.80;;;;;;;;;;4884768;29;20600;-76
2022/10/30 12:50:56;;;;;;;7.85;4.28;;;;;;;;;;4901935;29;20143;-75
2022/10/30 12:53:46;;;;;;;6.13;3.58;;;;;;;;;;4884475;29;20052;-77
2022/10/30 12:56:19;;;;;;;8.48;4.60;;;;;;;;;;4890287;29;20048;-77
2022/10/30 12:58:50;;;;;;;8.60;5.25;;;;;;;;;;4871224;29;20044;-76
2022/10/30 13:01:17;;;;;;;9.38;4.65;;;;;;;;;;4893168;29;20452;-77
2022/10/30 13:03:56;;;;;;;7.00;3.80;;;;;;;;;;4894422;29;20049;-77
2022/10/30 13:06:25;;;;;;;5.78;3.88;;;;;;;;;;4882115;29;20548;-76
2022/10/30 13:09:02;;;;;;;8.85;4.22;;;;;;;;;;4861390;29;20045;-76
2022/10/30 13:11:39;;;;;;;5.07;3.60;;;;;;;;;;4889612;29;20663;-76
2022/10/30 13:14:11;;;;;;;6.85;3.47;;;;;;;;;;4891452;29;20052;-77
2022/10/30 13:16:38;;;;;;;4.80;3.75;;;;;;;;;;4869469;29;20052;-77
2022/10/30 13:19:05;;;;;;;8.57;3.80;;;;;;;;;;4890954;29;20410;-76
2022/10/30 13:21:37;;;;;;;7.90;3.85;;;;;;;;;;4896667;29;20048;-76
2022/10/30 13:24:05;;;;;;;11.63;4.15;;;;;;;;;;4878209;29;20041;-76
2022/10/30 13:26:38;;;;;;;7.20;3.85;;;;;;;;;;4897886;29;20156;-76
2022/10/30 13:29:15;;;;;;;6.60;4.15;;;;;;;;;;4900494;29;20077;-76
2022/10/30 13:31:49;;;;;;;9.57;4.10;;;;;;;;;;4850416;29;20080;-76
2022/10/30 13:34:28;;;;;;;9.32;3.92;;;;;;;;;;4885549;29;20055;-76
2022/10/30 13:37:15;;;;;;;10.88;4.40;;;;;;;;;;4884674;29;20048;-77
2022/10/30 13:39:59;;;;;;;12.32;4.22;;;;;;;;;;4885483;29;20075;-76
2022/10/30 13:42:38;;;;;;;9.20;4.03;;;;;;;;;;4885894;29;20154;-76
2022/10/30 13:45:08;;;;;;;6.30;3.67;;;;;;;;;;4894344;29;20545;-77
2022/10/30 13:47:36;;;;;;;7.53;4.00;;;;;;;;;;4892609;29;20088;-80
2022/10/30 13:50:03;;;;;;;8.75;3.97;;;;;;;;;;4888633;29;20060;-76
2022/10/30 13:52:34;;;;;;;10.18;4.55;;;;;;;;;;4885355;29;20497;-76
2022/10/30 13:55:16;;;;;;;7.20;3.93;;;;;;;;;;4892796;29;20104;-76
2022/10/30 13:57:43;;;;;;;;;;;;;;;;;;4894819;29;20461;-76
2022/10/30 14:00:21;;;;;;;12.40;4.15;;;;;;;;;;4887170;29;20288;-76
2022/10/30 14:02:54;;;;;;;6.20;4.10;;;;;;;;;;4894995;29;20049;-76
2022/10/30 14:05:28;;;;;;;8.30;3.70;;;;;;;;;;4909602;29;20040;-77
2022/10/30 14:07:56;;;;;;;5.43;3.40;;;;;;;;;;4904972;29;20060;-76
2022/10/30 14:10:42;;;;;;;13.48;4.00;;;;;;;;;;4907767;29;20066;-76
2022/10/30 14:13:14;;;;;;;7.88;3.30;;;;;;;;;;4876524;29;20074;-76
2022/10/30 14:15:42;;;;;;;7.45;3.67;;;;;;;;;;4882515;29;20076;-76
2022/10/30 14:18:23;;;;;;;5.82;3.60;;;;;;;;;;4896600;29;20062;-76
2022/10/30 14:20:52;;;;;;;8.18;3.88;;;;;;;;;;4898895;29;20135;-76
2022/10/30 14:23:34;;;;;;;7.10;3.60;;;;;;;;;;4892315;29;20040;-77
2022/10/30 14:26:02;;;;;;;8.70;3.88;;;;;;;;;;4892729;29;20032;-77
2022/10/30 14:28:32;;;;;;;6.75;4.18;;;;;;;;;;4878149;29;20159;-77
2022/10/30 14:31:10;;;;;;;6.57;3.63;;;;;;;;;;4896470;29;20619;-77
2022/10/30 14:33:45;;;;;;;8.27;3.97;;;;;;;;;;4894237;29;20052;-77
2022/10/30 14:36:17;;;;;;;6.72;3.72;;;;;;;;;;4931724;23;20048;-73
2022/10/30 14:38:52;;;;;;;4.78;3.72;;;;;;;;;;4910515;29;20041;-73
2022/10/30 14:41:30;;;;;;;8.43;4.22;;;;;;;;;;4878083;29;20092;-73
2022/10/30 14:44:10;;;;;;;9.93;3.92;;;;;;;;;;4893549;29;20041;-72
2022/10/30 14:46:59;;;;;;;7.75;4.03;;;;;;;;;;4907484;29;20075;-73
2022/10/30 14:49:35;;;;;;;13.73;5.88;;;;;;;;;;4888631;24;20182;-80
2022/10/30 14:52:14;;;;;;;17.20;8.77;;;;;;;;;;4893750;29;20568;-80
2022/10/30 14:54:52;;;;;;;26.60;13.80;;;;;;;;;;4873162;29;20108;-81
2022/10/30 14:57:40;;;;;;;19.70;13.10;;;;;;;;;;4850517;29;20097;-80
2022/10/30 15:00:28;;;;;;;27.08;17.92;;;;;;;;;;4849234;29;20400;-80
2022/10/30 15:03:19;;;;;;;15.27;10.73;;;;;;;;;;4847496;29;20048;-80
2022/10/30 15:05:47;;;;;;;20.45;9.13;;;;;;;;;;4853943;29;20044;-80
2022/10/30 15:08:34;;;;;;;10.23;5.93;;;;;;;;;;4853423;29;20454;-80
2022/10/30 15:11:02;;;;;;;11.73;5.88;;;;;;;;;;4901095;23;20067;-73
2022/10/30 15:13:31;;;;;;;9.55;6.40;;;;;;;;;;4857033;29;20044;-74
2022/10/30 15:16:00;;;;;;;10.32;7.60;;;;;;;;;;4871073;29;20056;-73
2022/10/30 15:18:27;;;;;;;16.98;6.85;;;;;;;;;;4862988;29;20530;-73
2022/10/30 15:21:02;;;;;;;11.07;6.82;;;;;;;;;;4859103;29;20076;-73